createdAt,value
2023-03-03T00:02:30.551Z,51.60
2023-03-03T00:05:34.523Z,56.38
2023-03-03T00:08:37.702Z,49.75
2023-03-03T00:11:41.373Z,52.22
2023-03-03T00:14:43.824Z,51.10
2023-03-03T00:17:48.171Z,53.22
2023-03-03T00:20:54.446Z,55.30
2023-03-03T00:24:41.511Z,43.63
2023-03-03T00:27:43.875Z,50.45
2023-03-03T00:30:46.323Z,51.75
2023-03-03T00:33:54.951Z,58.28
2023-03-03T00:40:22.108Z,52.03
2023-03-03T00:43:28.365Z,57.88
2023-03-03T00:46:31.123Z,54.15
2023-03-03T00:49:33.883Z,53.72
2023-03-03T00:53:01.346Z,46.88
2023-03-03T00:56:03.511Z,44.30
2023-03-03T00:59:08.032Z,42.20
2023-03-03T01:02:10.472Z,47.03
2023-03-03T01:05:17.725Z,44.67
2023-03-03T01:08:22.720Z,47.15
2023-03-03T01:11:28.692Z,40.20
2023-03-03T01:14:32.424Z,47.80
2023-03-03T01:17:36.873Z,46.63
2023-03-03T01:20:39.446Z,46.70
2023-03-03T01:23:41.604Z,46.10
2023-03-03T01:26:46.839Z,45.20
2023-03-03T01:29:48.878Z,49.10
2023-03-03T01:32:50.908Z,39.95
2023-03-03T01:35:57.111Z,45.80
2023-03-03T01:39:00.564Z,36.03
2023-03-03T01:42:04.132Z,40.17
2023-03-03T01:45:31.457Z,42.20
2023-03-03T01:48:44.930Z,41.97
2023-03-03T01:51:54.193Z,40.35
2023-03-03T01:55:00.968Z,38.88
2023-03-03T01:58:11.380Z,39.83
2023-03-03T02:01:25.031Z,46.85
2023-03-03T02:04:27.778Z,46.67
2023-03-03T02:07:31.926Z,39.47
2023-03-03T02:10:36.146Z,34.35
2023-03-03T02:13:42.562Z,32.75
2023-03-03T02:16:45.071Z,48.33
2023-03-03T02:20:11.215Z,39.50
2023-03-03T02:23:38.442Z,45.10
2023-03-03T02:26:42.196Z,42.65
2023-03-03T02:29:45.987Z,41.90
2023-03-03T02:32:48.418Z,46.42
2023-03-03T02:35:52.077Z,45.90
2023-03-03T02:39:20.857Z,42.97
2023-03-03T02:42:29.989Z,44.13
2023-03-03T02:45:33.886Z,50.88
2023-03-03T02:48:36.027Z,40.53
2023-03-03T02:51:38.917Z,46.42
2023-03-03T02:54:41.121Z,47.92
2023-03-03T02:57:43.602Z,47.58
2023-03-03T03:00:48.250Z,48.15
2023-03-03T03:03:54.175Z,49.00
2023-03-03T03:06:58.430Z,49.67
2023-03-03T03:10:02.460Z,48.28
2023-03-03T03:13:06.971Z,53.40
2023-03-03T03:16:09.591Z,43.00
2023-03-03T03:19:11.977Z,45.30
2023-03-03T03:22:15.564Z,59.42
2023-03-03T03:25:19.530Z,50.95
2023-03-03T03:28:23.504Z,46.33
2023-03-03T03:31:26.076Z,57.47
2023-03-03T03:34:28.123Z,45.80
2023-03-03T03:37:32.024Z,51.60
2023-03-03T03:40:34.190Z,49.92
2023-03-03T03:43:36.484Z,48.20
2023-03-03T03:46:39.887Z,51.22
2023-03-03T03:49:42.783Z,51.08
2023-03-03T03:52:45.041Z,47.38
2023-03-03T03:55:48.307Z,47.63
2023-03-03T03:58:52.016Z,50.80
2023-03-03T04:01:54.090Z,56.08
2023-03-03T04:05:00.567Z,50.45
2023-03-03T04:08:03.744Z,54.15
2023-03-03T04:11:05.909Z,51.05
2023-03-03T04:14:08.129Z,51.63
2023-03-03T04:17:22.577Z,63.10
2023-03-03T04:20:24.743Z,70.30
2023-03-03T04:23:29.113Z,67.25
2023-03-03T04:26:32.037Z,56.45
2023-03-03T04:29:36.374Z,72.28
2023-03-03T04:32:38.972Z,72.47
2023-03-03T04:35:45.743Z,54.38
2023-03-03T04:38:48.030Z,58.88
2023-03-03T04:41:50.494Z,55.00
2023-03-03T04:44:53.746Z,53.45
2023-03-03T04:47:56.134Z,62.08
2023-03-03T04:50:58.477Z,61.10
2023-03-03T04:54:03.111Z,67.97
2023-03-03T04:57:05.437Z,62.75
2023-03-03T05:00:09.026Z,58.08
2023-03-03T05:03:13.040Z,46.28
2023-03-03T05:06:20.934Z,48.70
2023-03-03T05:09:24.979Z,49.22
2023-03-03T05:12:30.246Z,43.53
2023-03-03T05:15:33.060Z,45.33
2023-03-03T05:18:35.216Z,43.22
2023-03-03T05:21:38.025Z,46.65
2023-03-03T05:24:40.212Z,54.40
2023-03-03T05:27:44.176Z,47.55
2023-03-03T05:30:46.550Z,45.25
2023-03-03T05:33:48.689Z,57.15
2023-03-03T05:36:51.066Z,54.03
2023-03-03T05:39:53.160Z,57.67
2023-03-03T05:42:55.478Z,49.72
2023-03-03T05:45:59.242Z,46.70
2023-03-03T05:49:02.466Z,56.05
2023-03-03T05:52:04.737Z,66.80
2023-03-03T05:55:07.257Z,57.50
2023-03-03T05:58:09.588Z,74.43
2023-03-03T06:01:12.373Z,65.78
2023-03-03T06:04:14.839Z,58.95
2023-03-03T06:07:17.091Z,62.47
2023-03-03T06:10:19.329Z,59.85
2023-03-03T06:13:25.568Z,77.43
2023-03-03T06:16:27.521Z,67.00
2023-03-03T06:19:30.400Z,48.80
2023-03-03T06:22:34.440Z,59.10
2023-03-03T06:25:36.428Z,57.13
2023-03-03T06:28:38.409Z,49.63
2023-03-03T06:31:40.389Z,80.88
2023-03-03T06:34:42.303Z,61.75
2023-03-03T06:37:44.472Z,72.45
2023-03-03T06:40:47.300Z,63.65
2023-03-03T06:43:49.349Z,54.45
2023-03-03T06:46:51.253Z,62.60
2023-03-03T06:49:53.224Z,64.55
2023-03-03T06:53:16.010Z,50.65
2023-03-03T06:56:19.961Z,64.70
2023-03-03T06:59:22.521Z,67.57
2023-03-03T07:02:24.719Z,36.35
2023-03-03T07:05:29.099Z,44.63
2023-03-03T07:08:32.537Z,61.63
2023-03-03T07:11:37.318Z,65.13
2023-03-03T07:15:12.798Z,56.30
2023-03-03T07:18:30.114Z,84.97
2023-03-03T07:21:36.454Z,61.63
2023-03-03T07:24:41.777Z,68.15
2023-03-03T07:27:44.226Z,61.88
2023-03-03T07:30:46.472Z,67.65
2023-03-03T07:33:48.457Z,67.72
2023-03-03T07:36:54.327Z,67.20
2023-03-03T07:39:57.001Z,67.00
2023-03-03T07:42:59.170Z,74.75
2023-03-03T07:46:10.731Z,69.95
2023-03-03T07:49:36.098Z,62.90
2023-03-03T07:52:43.435Z,65.18
2023-03-03T07:55:45.946Z,65.50
2023-03-03T07:58:48.443Z,57.58
2023-03-03T08:01:56.691Z,65.25
2023-03-03T08:04:58.805Z,66.22
2023-03-03T08:08:32.803Z,50.47
2023-03-03T08:11:34.907Z,51.20
2023-03-03T08:14:38.872Z,46.72
2023-03-03T08:17:43.494Z,52.28
2023-03-03T08:20:48.271Z,50.85
2023-03-03T08:23:51.916Z,40.90
2023-03-03T08:26:54.049Z,38.08
2023-03-03T08:29:56.199Z,28.23
2023-03-03T08:32:58.455Z,33.72
2023-03-03T08:36:01.148Z,41.95
2023-03-03T08:39:05.184Z,55.72
2023-03-03T08:42:07.168Z,55.80
2023-03-03T08:45:10.154Z,46.03
2023-03-03T08:48:12.556Z,53.67
2023-03-03T08:51:20.320Z,46.33
2023-03-03T08:54:22.517Z,47.97
2023-03-03T08:57:24.925Z,42.92
2023-03-03T09:00:27.178Z,38.83
2023-03-03T09:03:30.042Z,40.25
2023-03-03T09:06:32.170Z,27.20
2023-03-03T09:09:34.183Z,33.05
2023-03-03T09:13:04.230Z,23.58
2023-03-03T09:16:17.084Z,19.45
2023-03-03T09:19:27.094Z,27.15
2023-03-03T09:22:29.880Z,30.92
2023-03-03T09:25:37.749Z,30.42
2023-03-03T09:28:39.910Z,22.60
2023-03-03T09:31:48.724Z,22.35
2023-03-03T09:34:50.856Z,15.23
2023-03-03T09:37:52.960Z,18.23
2023-03-03T09:40:57.798Z,19.25
2023-03-03T09:44:12.298Z,17.58
2023-03-03T09:47:39.727Z,19.67
2023-03-03T09:50:44.668Z,20.90
2023-03-03T09:54:09.180Z,22.05
2023-03-03T09:57:11.157Z,29.77
2023-03-03T10:00:18.999Z,23.85
2023-03-03T10:03:21.280Z,17.23
2023-03-03T10:06:39.310Z,25.67
2023-03-03T10:10:16.903Z,25.05
2023-03-03T10:13:37.682Z,20.58
2023-03-03T10:16:55.245Z,31.92
2023-03-03T10:20:18.484Z,19.48
2023-03-03T10:23:28.090Z,18.27
2023-03-03T10:27:11.706Z,19.40
2023-03-03T10:30:39.877Z,22.65
2023-03-03T10:37:21.166Z,26.52
2023-03-03T10:40:51.709Z,25.63
2023-03-03T10:44:11.184Z,23.52
2023-03-03T10:47:29.320Z,25.15
2023-03-03T10:50:54.507Z,19.52
2023-03-03T10:54:14.892Z,22.83
2023-03-03T10:57:31.946Z,19.48
2023-03-03T11:00:36.563Z,26.77
2023-03-03T11:04:08.733Z,21.95
2023-03-03T11:07:33.062Z,23.20
2023-03-03T11:11:10.128Z,24.15
2023-03-03T11:14:29.704Z,20.05
2023-03-03T11:17:52.818Z,24.75
2023-03-03T11:21:04.047Z,29.27
2023-03-03T11:24:35.482Z,24.83
2023-03-03T11:27:55.633Z,22.88
2023-03-03T11:31:25.683Z,25.33
2023-03-03T11:35:13.286Z,28.70
2023-03-03T11:38:40.135Z,24.05
2023-03-03T11:42:09.573Z,26.58
2023-03-03T11:45:20.170Z,23.85
2023-03-03T11:48:36.301Z,21.08
2023-03-03T11:51:43.982Z,20.65
2023-03-03T11:54:53.448Z,28.37
2023-03-03T11:58:16.691Z,23.15
2023-03-03T12:01:30.982Z,27.75
2023-03-03T12:04:39.791Z,28.58
2023-03-03T12:08:08.976Z,28.50
2023-03-03T12:11:26.070Z,19.10
2023-03-03T12:14:38.805Z,22.67
2023-03-03T12:17:55.678Z,20.98
2023-03-03T12:21:13.396Z,20.05
2023-03-03T12:24:21.492Z,28.33
2023-03-03T12:27:30.203Z,25.67
2023-03-03T12:31:02.944Z,23.45
2023-03-03T12:34:23.372Z,23.33
2023-03-03T12:37:47.222Z,23.08
2023-03-03T12:41:04.161Z,24.42
2023-03-03T12:44:21.517Z,19.88
2023-03-03T12:47:50.305Z,21.98
2023-03-03T12:51:24.594Z,23.13
2023-03-03T12:54:46.829Z,16.58
2023-03-03T12:57:57.704Z,18.75
2023-03-03T13:01:28.306Z,22.33
2023-03-03T13:04:42.825Z,20.67
2023-03-03T13:07:58.239Z,27.65
2023-03-03T13:11:09.546Z,18.23
2023-03-03T13:14:14.443Z,16.52
2023-03-03T13:17:16.732Z,21.58
2023-03-03T13:20:42.677Z,18.38
2023-03-03T13:24:28.700Z,22.58
2023-03-03T13:27:39.845Z,19.02
2023-03-03T13:30:49.024Z,19.25
2023-03-03T13:33:55.685Z,18.50
2023-03-03T13:37:05.437Z,18.00
2023-03-03T13:40:13.547Z,19.98
2023-03-03T13:43:20.901Z,20.23
2023-03-03T13:46:22.868Z,19.73
2023-03-03T13:49:30.633Z,17.70
2023-03-03T13:52:37.042Z,17.38
2023-03-03T13:56:01.904Z,18.95
2023-03-03T13:59:50.751Z,28.08
2023-03-03T14:03:20.145Z,20.02
2023-03-03T14:06:24.907Z,24.30
2023-03-03T14:09:56.945Z,18.83
2023-03-03T14:13:24.068Z,21.67
2023-03-03T14:16:47.286Z,22.88
2023-03-03T14:20:03.193Z,22.30
2023-03-03T14:23:16.830Z,25.33
2023-03-03T14:26:19.198Z,21.75
2023-03-03T14:29:32.355Z,24.35
2023-03-03T14:32:45.146Z,20.05
2023-03-03T14:36:11.791Z,22.45
2023-03-03T14:39:35.698Z,19.83
2023-03-03T14:42:50.629Z,19.17
2023-03-03T14:45:56.634Z,18.67
2023-03-03T14:49:01.159Z,18.83
2023-03-03T14:52:15.140Z,20.13
2023-03-03T14:55:36.222Z,25.23
2023-03-03T14:58:42.533Z,25.98
2023-03-03T15:01:45.312Z,22.52
2023-03-03T15:04:48.875Z,30.48
2023-03-03T15:07:57.553Z,24.02
2023-03-03T15:11:25.231Z,24.20
2023-03-03T15:14:30.731Z,22.83
2023-03-03T15:17:44.475Z,24.10
2023-03-03T15:21:13.709Z,28.17
2023-03-03T15:24:39.042Z,25.90
2023-03-03T15:28:08.372Z,27.27
2023-03-03T15:31:38.481Z,39.13
2023-03-03T15:34:49.081Z,28.55
2023-03-03T15:37:59.744Z,25.73
2023-03-03T15:41:24.972Z,29.50
2023-03-03T15:44:40.697Z,31.73
2023-03-03T15:47:53.340Z,24.35
2023-03-03T15:51:13.721Z,31.48
2023-03-03T15:54:52.658Z,29.67
2023-03-03T15:57:57.518Z,33.22
2023-03-03T16:01:16.416Z,41.78
2023-03-03T16:04:22.616Z,43.15
2023-03-03T16:07:37.794Z,23.45
2023-03-03T16:10:49.093Z,22.08
2023-03-03T16:14:32.677Z,18.23
2023-03-03T16:17:55.675Z,16.65
2023-03-03T16:21:11.843Z,20.98
2023-03-03T16:25:00.256Z,20.15
2023-03-03T16:28:25.066Z,17.67
2023-03-03T16:31:34.956Z,20.90
2023-03-03T16:34:42.385Z,20.55
2023-03-03T16:37:58.850Z,18.75
2023-03-03T16:41:03.587Z,26.92
2023-03-03T16:44:52.720Z,25.02
2023-03-03T16:47:57.724Z,23.27
2023-03-03T16:51:23.550Z,25.88
2023-03-03T16:54:55.841Z,29.15
2023-03-03T16:58:37.003Z,30.50
2023-03-03T17:01:43.564Z,38.20
2023-03-03T17:05:08.591Z,33.10
2023-03-03T17:08:53.011Z,36.85
2023-03-03T17:12:00.765Z,27.17
2023-03-03T17:15:21.396Z,27.80
2023-03-03T17:18:41.555Z,33.45
2023-03-03T17:22:07.319Z,29.92
2023-03-03T17:25:23.102Z,30.10
2023-03-03T17:28:40.343Z,32.08
2023-03-03T17:31:51.332Z,29.65
2023-03-03T17:35:11.906Z,29.63
2023-03-03T17:38:32.203Z,28.77
2023-03-03T17:41:49.354Z,36.75
2023-03-03T17:44:57.464Z,33.90
2023-03-03T17:48:27.284Z,32.95
2023-03-03T17:54:36.746Z,30.65
2023-03-03T17:58:09.381Z,31.55
2023-03-03T18:01:26.876Z,36.33
2023-03-03T18:05:15.621Z,43.00
2023-03-03T18:08:43.673Z,42.75
2023-03-03T18:12:26.659Z,39.05
2023-03-03T18:16:12.194Z,37.28
2023-03-03T18:19:56.749Z,43.17
2023-03-03T18:23:39.847Z,50.15
2023-03-03T18:26:42.715Z,44.65
2023-03-03T18:30:21.525Z,45.30
2023-03-03T18:34:01.745Z,41.85
2023-03-03T18:40:06.109Z,48.58
2023-03-03T18:43:45.137Z,55.47
2023-03-03T18:46:49.126Z,53.42
2023-03-03T18:49:57.673Z,50.90
2023-03-03T18:53:20.142Z,54.90
2023-03-03T18:56:45.487Z,50.30
2023-03-03T19:00:14.503Z,46.50
2023-03-03T19:03:31.229Z,53.58
2023-03-03T19:06:38.271Z,43.42
2023-03-03T19:09:57.259Z,50.70
2023-03-03T19:13:00.194Z,54.17
2023-03-03T19:16:07.952Z,54.83
2023-03-03T19:19:13.009Z,52.20
2023-03-03T19:22:32.924Z,53.17
2023-03-03T19:25:35.893Z,50.38
2023-03-03T19:28:50.379Z,53.97
2023-03-03T19:32:13.918Z,56.40
2023-03-03T19:35:34.891Z,49.80
2023-03-03T19:43:09.445Z,57.33
2023-03-03T19:46:41.026Z,55.63
2023-03-03T19:50:05.358Z,54.50
2023-03-03T19:53:59.986Z,52.25
2023-03-03T19:57:05.502Z,51.47
2023-03-03T20:00:28.701Z,48.25
2023-03-03T20:04:04.370Z,48.38
2023-03-03T20:07:43.790Z,48.72
2023-03-03T20:10:45.806Z,49.67
2023-03-03T20:14:01.970Z,49.97
2023-03-03T20:17:25.168Z,52.92
2023-03-03T20:20:36.108Z,46.35
2023-03-03T20:23:50.143Z,53.42
2023-03-03T20:27:10.508Z,42.20
2023-03-03T20:30:45.329Z,44.13
2023-03-03T20:33:56.295Z,41.08
2023-03-03T20:37:34.459Z,44.72
2023-03-03T20:40:50.499Z,39.63
2023-03-03T20:44:21.591Z,45.78
2023-03-03T20:47:38.574Z,49.90
2023-03-03T20:51:10.134Z,41.55
2023-03-03T20:54:47.871Z,49.65
2023-03-03T20:57:59.140Z,45.95
2023-03-03T21:01:08.599Z,39.15
2023-03-03T21:04:22.755Z,45.45
2023-03-03T21:07:26.556Z,42.58
2023-03-03T21:10:37.978Z,47.10
2023-03-03T21:13:45.437Z,49.78
2023-03-03T21:16:48.865Z,50.85
2023-03-03T21:19:54.289Z,43.28
2023-03-03T21:22:57.948Z,42.90
2023-03-03T21:26:00.248Z,40.28
2023-03-03T21:29:03.580Z,50.20
2023-03-03T21:32:09.442Z,48.42
2023-03-03T21:35:15.225Z,47.22
2023-03-03T21:38:39.588Z,45.08
2023-03-03T21:42:13.160Z,40.88
2023-03-03T21:45:17.389Z,45.15
2023-03-03T21:48:20.542Z,40.78
2023-03-03T21:51:24.476Z,44.90
2023-03-03T21:54:26.926Z,34.33
2023-03-03T21:57:29.072Z,49.97
2023-03-03T22:00:32.875Z,42.08
2023-03-03T22:03:35.756Z,43.22
2023-03-03T22:06:37.935Z,46.92
2023-03-03T22:09:40.034Z,40.70
2023-03-03T22:12:42.066Z,41.47
2023-03-03T22:15:44.086Z,44.10
2023-03-03T22:18:46.159Z,39.25
2023-03-03T22:21:49.856Z,42.13
2023-03-03T22:24:52.009Z,50.78
2023-03-03T22:27:54.102Z,38.88
2023-03-03T22:30:57.043Z,46.42
2023-03-03T22:33:59.500Z,51.42
2023-03-03T22:37:01.606Z,43.72
2023-03-03T22:40:04.088Z,51.45
2023-03-03T22:43:10.892Z,44.65
2023-03-03T22:46:13.013Z,43.60
2023-03-03T22:49:15.099Z,43.95
2023-03-03T22:52:17.107Z,44.17
2023-03-03T22:55:19.249Z,41.47
2023-03-03T22:58:25.489Z,47.67
2023-03-03T23:01:27.741Z,42.55
2023-03-03T23:04:29.889Z,40.20
2023-03-03T23:07:31.944Z,45.72
2023-03-03T23:10:34.543Z,45.90
2023-03-03T23:13:36.626Z,50.72
2023-03-03T23:16:38.673Z,46.65
2023-03-03T23:19:40.813Z,38.42
2023-03-03T23:22:42.769Z,42.33
2023-03-03T23:25:44.823Z,39.72
2023-03-03T23:28:46.979Z,47.58
2023-03-03T23:31:48.974Z,54.08
2023-03-03T23:34:54.223Z,43.55
2023-03-03T23:37:56.271Z,47.20
2023-03-03T23:40:58.319Z,44.28
2023-03-03T23:44:00.404Z,41.80
2023-03-03T23:47:02.495Z,40.45
2023-03-03T23:50:05.050Z,41.70
2023-03-03T23:53:07.998Z,41.97
2023-03-03T23:56:10.107Z,42.92
2023-03-03T23:59:12.184Z,40.00
